Time;durP1;ratioP1;P1;durP2;ratioP2;P2;SDS_P1;SDS_P2;PMS_P1;PMS_P2;Temp;Humidity;BMP_temperature;BMP_pressure;BME280_temperature;BME280_humidity;BME280_pressure;Samples;Min_cycle;Max_cycle;Signal;HPM_P1;HPM_P2
2023/08/21 00:01:28;;;;;;;1.20;0.80;;;18.10;99.90;;;;;;5115330;28;20203;-87
2023/08/21 00:04:00;;;;;;;1.90;0.90;;;18.20;99.90;;;;;;5102262;27;20210;-88
2023/08/21 00:06:32;;;;;;;2.13;0.80;;;18.30;99.90;;;;;;5106447;28;20190;-88
2023/08/21 00:09:04;;;;;;;2.15;0.60;;;18.50;99.90;;;;;;5109243;28;20641;-87
2023/08/21 00:11:34;;;;;;;1.15;0.80;;;18.50;99.90;;;;;;5111211;28;20258;-87
2023/08/21 00:14:05;;;;;;;4.22;0.88;;;18.60;99.90;;;;;;5115317;28;20205;-86
2023/08/21 00:16:37;;;;;;;1.67;0.90;;;18.60;99.90;;;;;;5115562;28;20187;-87
2023/08/21 00:19:09;;;;;;;2.95;1.00;;;18.60;99.90;;;;;;5114348;28;20198;-85
2023/08/21 00:21:40;;;;;;;1.05;0.80;;;18.70;99.90;;;;;;5113252;28;20190;-87
2023/08/21 00:24:12;;;;;;;1.45;0.70;;;18.70;99.90;;;;;;5113744;28;20186;-87
2023/08/21 00:26:43;;;;;;;2.00;0.93;;;18.80;99.90;;;;;;5114481;28;20179;-86
2023/08/21 00:29:14;;;;;;;2.88;0.70;;;19.00;99.90;;;;;;5114825;28;20194;-89
2023/08/21 00:31:45;;;;;;;1.27;0.80;;;19.00;99.90;;;;;;5104686;28;20195;-87
2023/08/21 00:34:18;;;;;;;1.25;0.80;;;19.00;99.90;;;;;;5095003;28;20243;-87
2023/08/21 00:36:49;;;;;;;3.42;0.80;;;19.10;99.90;;;;;;5092690;27;20195;-86
2023/08/21 00:39:20;;;;;;;1.55;0.90;;;19.20;99.90;;;;;;5106037;27;20235;-87
2023/08/21 00:41:50;;;;;;;2.63;0.60;;;19.20;99.90;;;;;;5114744;27;20186;-88
2023/08/21 00:44:21;;;;;;;0.70;0.60;;;19.20;99.90;;;;;;5122964;27;20182;-89
2023/08/21 00:46:53;;;;;;;1.45;0.60;;;19.20;99.90;;;;;;5117073;27;20209;-88
2023/08/21 00:49:26;;;;;;;1.63;0.77;;;19.40;99.90;;;;;;5116138;27;20202;-90
2023/08/21 00:51:57;;;;;;;0.82;0.70;;;19.20;99.90;;;;;;5131419;27;20182;-88
2023/08/21 00:54:29;;;;;;;0.82;0.60;;;19.30;99.90;;;;;;5130144;27;20214;-89
2023/08/21 00:56:59;;;;;;;1.75;0.70;;;19.40;99.90;;;;;;5134685;27;20193;-87
2023/08/21 00:59:31;;;;;;;1.40;0.70;;;19.50;99.90;;;;;;5134762;27;20222;-88
2023/08/21 01:02:03;;;;;;;3.72;0.70;;;19.60;99.90;;;;;;5112514;27;20198;-87
2023/08/21 01:04:37;;;;;;;2.45;0.70;;;19.60;99.90;;;;;;5116400;28;20191;-89
2023/08/21 01:07:09;;;;;;;0.90;0.70;;;19.70;99.90;;;;;;5130082;27;20595;-89
2023/08/21 01:09:48;;;;;;;1.05;0.70;;;19.70;99.90;;;;;;5115003;27;20277;-88
2023/08/21 01:12:26;;;;;;;1.35;0.73;;;19.70;99.90;;;;;;5130002;27;20193;-87
2023/08/21 01:15:02;;;;;;;1.35;0.70;;;19.70;99.90;;;;;;5116431;27;20197;-88
2023/08/21 01:17:36;;;;;;;1.02;0.60;;;19.60;99.90;;;;;;5113868;27;20199;-89
2023/08/21 01:20:11;;;;;;;4.78;0.70;;;19.70;99.90;;;;;;5094042;28;20223;-90
2023/08/21 01:22:45;;;;;;;1.70;0.73;;;19.80;99.90;;;;;;5095584;27;20199;-88
2023/08/21 01:25:20;;;;;;;1.67;0.60;;;19.90;99.90;;;;;;5116547;27;20276;-91
2023/08/21 01:27:53;;;;;;;2.25;0.60;;;19.90;99.90;;;;;;5136208;27;20190;-96
2023/08/21 01:30:27;;;;;;;1.38;0.60;;;20.00;99.90;;;;;;5106891;27;20194;-95
2023/08/21 01:33:05;;;;;;;1.27;0.80;;;19.90;99.90;;;;;;5101560;27;20885;-96
2023/08/21 01:35:39;;;;;;;3.15;1.00;;;19.90;99.90;;;;;;5138954;27;20607;-96
2023/08/21 01:38:12;;;;;;;0.57;0.57;;;20.10;99.90;;;;;;5106148;28;20170;-95
2023/08/21 01:40:47;;;;;;;1.27;0.75;;;20.10;99.90;;;;;;5115898;27;20236;-89
2023/08/21 01:43:18;;;;;;;2.70;0.80;;;20.00;99.90;;;;;;5106781;28;20198;-91
2023/08/21 01:45:51;;;;;;;2.50;1.10;;;20.10;99.90;;;;;;5082584;28;20445;-88
2023/08/21 01:48:22;;;;;;;1.73;0.85;;;20.10;99.90;;;;;;5115971;27;20217;-91
2023/08/21 01:50:53;;;;;;;2.85;0.90;;;20.20;99.90;;;;;;5112573;27;20243;-89
2023/08/21 01:53:24;;;;;;;1.33;0.70;;;20.30;99.90;;;;;;5123379;27;20209;-92
2023/08/21 01:55:58;;;;;;;2.58;0.80;;;20.30;99.90;;;;;;5112014;27;20267;-90
2023/08/21 01:58:29;;;;;;;1.92;1.00;;;20.50;99.90;;;;;;5115870;28;20205;-88
2023/08/21 02:01:00;;;;;;;2.38;0.75;;;20.60;99.00;;;;;;5124861;27;20218;-90
2023/08/21 02:03:31;;;;;;;1.95;0.73;;;20.50;98.20;;;;;;5112553;27;20201;-87
2023/08/21 02:06:02;;;;;;;1.73;0.80;;;20.50;98.00;;;;;;5117202;27;20185;-89
2023/08/21 02:08:36;;;;;;;2.35;0.60;;;20.70;98.90;;;;;;5103173;28;20209;-89
2023/08/21 02:11:10;;;;;;;1.85;0.70;;;20.80;97.30;;;;;;5097432;28;20194;-90
2023/08/21 02:16:25;;;;;;;2.78;0.75;;;21.00;96.00;;;;;;5125853;27;20669;-89
2023/08/21 02:18:56;;;;;;;1.27;0.90;;;21.10;96.40;;;;;;5124826;27;21497;-88
2023/08/21 02:21:28;;;;;;;1.35;0.63;;;21.10;96.40;;;;;;5133516;27;20204;-89
2023/08/21 02:23:58;;;;;;;1.70;0.88;;;21.20;94.70;;;;;;5113937;28;20213;-90
2023/08/21 02:26:32;;;;;;;1.05;0.70;;;21.20;95.40;;;;;;5106105;27;20638;-89
2023/08/21 02:29:06;;;;;;;0.82;0.80;;;21.40;95.20;;;;;;5115454;27;20196;-90
2023/08/21 02:31:37;;;;;;;1.42;0.80;;;21.50;94.80;;;;;;5097200;28;20188;-92
2023/08/21 02:34:08;;;;;;;2.65;0.80;;;21.50;94.30;;;;;;5093248;28;20332;-91
2023/08/21 02:36:38;;;;;;;0.93;0.73;;;21.50;94.00;;;;;;5075606;28;20206;-90
2023/08/21 02:39:09;;;;;;;1.35;0.70;;;21.50;92.90;;;;;;5078365;28;20273;-91
2023/08/21 02:41:42;;;;;;;1.63;0.80;;;21.50;93.50;;;;;;5116120;28;20285;-89
2023/08/21 02:44:13;;;;;;;1.55;0.80;;;21.50;93.00;;;;;;5126124;28;20551;-88
2023/08/21 02:46:45;;;;;;;3.88;0.80;;;21.50;92.70;;;;;;5102792;28;20614;-92
2023/08/21 02:49:16;;;;;;;1.70;0.80;;;21.50;92.60;;;;;;5132639;28;20664;-90
2023/08/21 02:51:48;;;;;;;2.72;0.77;;;21.60;93.20;;;;;;5135228;28;20194;-90
2023/08/21 02:54:19;;;;;;;2.00;0.85;;;21.70;91.90;;;;;;5095846;28;20210;-91
2023/08/21 02:56:52;;;;;;;0.93;0.50;;;21.70;92.60;;;;;;5120019;28;20186;-90
2023/08/21 02:59:23;;;;;;;2.70;0.73;;;21.80;92.10;;;;;;5128201;28;20689;-91
2023/08/21 03:01:56;;;;;;;1.77;0.80;;;21.90;92.10;;;;;;5126535;28;20212;-88
2023/08/21 03:04:27;;;;;;;1.00;0.70;;;22.00;91.60;;;;;;5145314;28;20238;-92
2023/08/21 03:06:57;;;;;;;0.80;0.52;;;22.10;91.60;;;;;;5149746;28;20345;-89
2023/08/21 03:09:28;;;;;;;1.88;0.73;;;22.00;90.60;;;;;;5127842;28;20305;-89
2023/08/21 03:12:04;;;;;;;1.25;0.68;;;22.10;91.00;;;;;;5119934;28;20208;-90
2023/08/21 03:14:35;;;;;;;0.88;0.75;;;22.10;91.20;;;;;;5125567;28;20190;-89
2023/08/21 03:17:05;;;;;;;0.90;0.60;;;22.00;90.00;;;;;;5120386;28;20194;-89
2023/08/21 03:19:39;;;;;;;1.80;0.60;;;21.90;90.10;;;;;;5120377;28;20226;-87
2023/08/21 03:22:11;;;;;;;1.40;0.60;;;21.70;90.70;;;;;;5117047;28;20190;-91
2023/08/21 03:24:41;;;;;;;0.95;0.85;;;21.90;90.80;;;;;;5116439;28;20222;-88
2023/08/21 03:27:17;;;;;;;2.95;0.70;;;21.80;90.70;;;;;;5120526;27;20210;-88
2023/08/21 03:29:48;;;;;;;0.80;0.70;;;21.70;92.70;;;;;;5113492;27;20202;-89
2023/08/21 03:32:20;;;;;;;3.30;0.73;;;21.60;94.50;;;;;;5113402;27;20193;-87
2023/08/21 03:34:50;;;;;;;2.15;0.90;;;21.60;95.90;;;;;;5125658;27;20200;-88
2023/08/21 03:37:21;;;;;;;3.50;0.90;;;21.80;96.10;;;;;;5136796;27;20197;-88
2023/08/21 03:39:52;;;;;;;1.95;0.90;;;21.70;97.20;;;;;;5123836;27;20223;-87
2023/08/21 03:42:25;;;;;;;4.47;1.20;;;21.60;98.40;;;;;;5129921;27;20194;-87
2023/08/21 03:44:55;;;;;;;1.98;0.88;;;21.50;98.30;;;;;;5137167;27;20202;-87
2023/08/21 03:47:26;;;;;;;1.00;0.80;;;21.40;98.30;;;;;;5133761;27;20182;-87
2023/08/21 03:49:57;;;;;;;2.40;1.00;;;21.30;98.00;;;;;;5116764;28;20215;-87
2023/08/21 03:52:28;;;;;;;2.00;0.95;;;21.30;98.10;;;;;;5109304;27;20202;-86
2023/08/21 03:54:58;;;;;;;2.00;0.70;;;21.30;98.40;;;;;;5129889;27;20194;-88
2023/08/21 03:57:31;;;;;;;1.23;0.77;;;21.30;98.00;;;;;;5116285;28;20187;-87
2023/08/21 04:00:02;;;;;;;2.88;0.70;;;21.40;98.20;;;;;;5121740;27;20571;-89
2023/08/21 04:02:33;;;;;;;2.50;0.80;;;21.50;97.90;;;;;;5118653;27;20190;-89
2023/08/21 04:05:04;;;;;;;1.48;0.70;;;21.50;98.40;;;;;;5136627;27;20197;-88
2023/08/21 04:07:35;;;;;;;0.82;0.60;;;21.60;98.10;;;;;;5135315;27;20194;-88
2023/08/21 04:10:06;;;;;;;0.77;0.60;;;21.60;97.30;;;;;;5105163;28;20226;-89
2023/08/21 04:12:41;;;;;;;1.67;1.00;;;21.50;97.30;;;;;;5135652;27;20276;-89
2023/08/21 04:15:13;;;;;;;2.72;0.88;;;21.50;97.70;;;;;;5096100;28;20212;-88
2023/08/21 04:17:44;;;;;;;1.92;1.00;;;21.50;97.80;;;;;;5095451;28;20718;-89
2023/08/21 04:20:16;;;;;;;2.05;0.85;;;21.50;97.90;;;;;;5109457;28;20210;-88
2023/08/21 04:22:47;;;;;;;1.98;0.90;;;21.50;97.40;;;;;;5115501;28;20191;-89
2023/08/21 04:25:18;;;;;;;0.88;0.85;;;21.30;97.70;;;;;;5116537;28;20226;-88
2023/08/21 04:27:53;;;;;;;1.25;0.60;;;21.20;98.70;;;;;;5101976;28;20573;-89
2023/08/21 04:30:24;;;;;;;2.10;0.93;;;21.20;99.10;;;;;;5102936;27;20193;-88
2023/08/21 04:32:55;;;;;;;0.80;0.80;;;21.10;99.50;;;;;;5135521;27;20179;-88
2023/08/21 04:35:27;;;;;;;4.55;0.80;;;21.00;99.90;;;;;;5094620;28;20199;-89
2023/08/21 04:37:58;;;;;;;1.65;0.95;;;21.00;99.80;;;;;;5112650;27;20181;-88
2023/08/21 04:40:29;;;;;;;1.02;0.88;;;20.90;99.90;;;;;;5094824;28;20222;-90
2023/08/21 04:43:03;;;;;;;1.80;0.70;;;20.90;99.90;;;;;;5095020;28;20555;-92
2023/08/21 04:45:37;;;;;;;2.85;0.85;;;20.80;99.90;;;;;;5128083;27;20659;-91
2023/08/21 04:48:09;;;;;;;1.85;0.73;;;20.60;99.90;;;;;;5138105;27;20186;-93
2023/08/21 04:50:41;;;;;;;2.80;0.90;;;20.60;99.90;;;;;;5139472;27;20702;-90
2023/08/21 04:53:11;;;;;;;2.65;1.13;;;20.60;99.90;;;;;;5137094;27;20275;-90
2023/08/21 04:55:44;;;;;;;1.65;0.90;;;20.60;99.90;;;;;;5127934;27;20204;-91
2023/08/21 04:58:19;;;;;;;3.42;0.90;;;20.70;99.90;;;;;;5113380;27;20198;-90
2023/08/21 05:00:51;;;;;;;2.08;0.80;;;20.70;99.90;;;;;;5117149;28;20278;-90
2023/08/21 05:03:22;;;;;;;2.38;0.77;;;20.70;99.90;;;;;;5116445;28;20598;-92
2023/08/21 05:06:00;;;;;;;1.75;0.80;;;20.70;99.90;;;;;;5134464;27;20224;-93
2023/08/21 05:08:31;;;;;;;3.65;1.00;;;20.70;99.90;;;;;;5116481;28;20202;-90
2023/08/21 05:11:03;;;;;;;2.80;0.95;;;20.70;99.90;;;;;;5119779;27;20189;-89
2023/08/21 05:13:38;;;;;;;2.90;0.90;;;20.70;99.90;;;;;;5118852;27;20190;-92
2023/08/21 05:16:15;;;;;;;0.82;0.80;;;20.70;99.90;;;;;;5119201;27;20257;-90
2023/08/21 05:18:46;;;;;;;1.45;0.90;;;20.60;99.90;;;;;;5119610;27;20194;-92
2023/08/21 05:21:17;;;;;;;3.00;0.80;;;20.60;99.90;;;;;;5099589;28;20239;-92
2023/08/21 05:23:48;;;;;;;1.38;0.60;;;20.60;99.90;;;;;;5119644;27;20281;-90
2023/08/21 05:26:23;;;;;;;1.95;0.70;;;20.60;99.90;;;;;;5131270;27;20229;-89
2023/08/21 05:28:56;;;;;;;1.60;0.77;;;20.50;99.90;;;;;;5104109;27;20187;-89
2023/08/21 05:31:27;;;;;;;1.77;0.90;;;20.60;99.90;;;;;;5115453;27;20193;-90
2023/08/21 05:34:01;;;;;;;1.58;0.75;;;20.60;99.90;;;;;;5115948;28;20194;-90
2023/08/21 05:36:33;;;;;;;1.67;0.90;;;20.60;99.90;;;;;;5118191;27;20280;-88
2023/08/21 05:39:08;;;;;;;1.55;0.80;;;20.60;99.90;;;;;;5137020;27;20244;-90
2023/08/21 05:41:40;;;;;;;2.08;0.85;;;20.60;99.90;;;;;;5122911;28;20224;-90
2023/08/21 05:44:13;;;;;;;2.28;0.88;;;20.70;99.90;;;;;;5118146;28;20228;-91
2023/08/21 05:46:48;;;;;;;1.55;0.75;;;20.70;99.90;;;;;;5124748;27;20197;-90
2023/08/21 05:49:19;;;;;;;3.88;1.02;;;20.60;99.90;;;;;;5088868;28;20202;-87
2023/08/21 05:51:53;;;;;;;2.28;0.90;;;20.60;99.90;;;;;;5108614;27;20208;-91
2023/08/21 05:54:24;;;;;;;2.60;0.82;;;20.60;99.90;;;;;;5102860;28;20214;-90
2023/08/21 05:57:00;;;;;;;2.40;0.75;;;20.60;99.90;;;;;;5103835;27;20194;-89
2023/08/21 05:59:45;;;;;;;2.75;0.70;;;20.60;99.90;;;;;;5134404;27;20205;-89
2023/08/21 06:02:21;;;;;;;4.35;0.82;;;20.70;99.90;;;;;;5125021;27;20210;-91
2023/08/21 06:04:58;;;;;;;2.67;1.00;;;20.80;99.90;;;;;;5117235;28;20178;-87
2023/08/21 06:07:29;;;;;;;3.20;1.00;;;20.70;99.90;;;;;;5116615;27;20206;-88
2023/08/21 06:10:00;;;;;;;1.58;0.93;;;20.70;99.90;;;;;;5087776;28;20303;-87
2023/08/21 06:12:31;;;;;;;1.52;0.70;;;20.70;99.90;;;;;;5105468;28;20203;-88
2023/08/21 06:15:08;;;;;;;0.98;0.65;;;20.80;99.90;;;;;;5109667;27;20191;-87
2023/08/21 06:17:39;;;;;;;1.33;0.68;;;20.90;99.90;;;;;;5112338;28;20186;-87
2023/08/21 06:20:11;;;;;;;0.98;0.60;;;21.00;99.90;;;;;;5123143;27;20209;-85
2023/08/21 06:22:42;;;;;;;1.50;0.68;;;21.10;99.90;;;;;;5119727;27;20229;-85
2023/08/21 06:25:13;;;;;;;0.90;0.60;;;21.30;99.90;;;;;;5116068;28;20644;-88
2023/08/21 06:27:44;;;;;;;1.95;0.68;;;21.30;99.90;;;;;;5107728;27;20247;-91
2023/08/21 06:30:19;;;;;;;1.75;0.65;;;21.30;99.90;;;;;;5108450;28;20241;-90
2023/08/21 06:32:51;;;;;;;3.92;0.70;;;21.30;99.90;;;;;;5092790;28;20190;-92
2023/08/21 06:35:21;;;;;;;1.25;0.70;;;21.30;99.90;;;;;;5111894;28;20202;-88
2023/08/21 06:37:54;;;;;;;1.50;0.75;;;21.40;99.90;;;;;;5104225;28;20190;-88
2023/08/21 06:40:28;;;;;;;0.70;0.63;;;21.30;99.90;;;;;;5108289;28;20675;-87
2023/08/21 06:42:59;;;;;;;3.72;0.80;;;21.30;99.90;;;;;;5101380;28;20201;-89
2023/08/21 06:45:32;;;;;;;2.60;0.75;;;21.30;99.90;;;;;;5113771;28;20638;-87
2023/08/21 06:48:03;;;;;;;1.88;0.70;;;21.20;99.90;;;;;;5119232;28;20201;-88
2023/08/21 06:50:34;;;;;;;1.40;0.60;;;21.30;99.90;;;;;;5115845;28;20202;-88
2023/08/21 06:53:05;;;;;;;1.98;0.90;;;21.10;99.90;;;;;;5114020;28;20239;-89
2023/08/21 06:55:39;;;;;;;2.08;0.80;;;20.80;99.90;;;;;;5107507;27;20276;-90
2023/08/21 06:58:10;;;;;;;2.47;0.80;;;20.60;99.90;;;;;;5122896;27;20190;-91
2023/08/21 07:00:43;;;;;;;2.70;0.80;;;20.40;99.90;;;;;;5131301;27;20247;-88
2023/08/21 07:03:14;;;;;;;1.13;0.70;;;20.20;99.90;;;;;;5120836;27;20201;-89
2023/08/21 07:05:48;;;;;;;1.88;0.60;;;20.20;99.90;;;;;;5127752;27;20182;-89
2023/08/21 07:08:19;;;;;;;1.13;0.68;;;20.10;99.90;;;;;;5119977;27;20182;-89
2023/08/21 07:10:50;;;;;;;1.10;0.70;;;20.00;99.90;;;;;;5125288;27;20261;-90
2023/08/21 07:13:22;;;;;;;1.13;0.70;;;19.90;99.90;;;;;;5116397;27;20192;-89
2023/08/21 07:15:56;;;;;;;2.75;0.80;;;19.70;99.90;;;;;;5112021;27;20202;-88
2023/08/21 07:18:28;;;;;;;2.40;1.60;;;19.60;99.90;;;;;;5100650;28;20730;-89
2023/08/21 07:21:00;;;;;;;4.15;1.30;;;19.50;99.90;;;;;;5115864;28;20214;-90
2023/08/21 07:23:31;;;;;;;1.83;1.20;;;19.40;99.90;;;;;;5108137;28;20190;-89
2023/08/21 07:26:04;;;;;;;2.67;1.10;;;19.30;99.90;;;;;;5122358;27;20225;-87
2023/08/21 07:28:35;;;;;;;1.17;0.90;;;19.30;99.90;;;;;;5116753;28;20191;-88
2023/08/21 07:31:11;;;;;;;2.55;1.10;;;19.20;99.90;;;;;;5122567;27;20221;-90
2023/08/21 07:33:41;;;;;;;2.03;0.93;;;19.20;99.90;;;;;;5119360;27;20200;-89
2023/08/21 07:36:16;;;;;;;1.75;1.10;;;19.10;99.90;;;;;;5116553;28;20207;-88
2023/08/21 07:38:47;;;;;;;2.35;1.10;;;19.10;99.90;;;;;;5111479;27;20194;-88
2023/08/21 07:41:19;;;;;;;2.17;0.90;;;19.00;99.90;;;;;;5106577;28;20230;-88
2023/08/21 07:43:50;;;;;;;1.90;1.00;;;18.90;99.90;;;;;;5109503;28;20213;-86
2023/08/21 07:46:23;;;;;;;0.85;0.70;;;18.90;99.90;;;;;;5136836;27;20196;-86
2023/08/21 07:48:55;;;;;;;1.95;0.90;;;18.80;99.90;;;;;;5138595;27;20202;-89
2023/08/21 07:51:26;;;;;;;2.83;1.02;;;18.70;99.90;;;;;;5107091;28;20198;-85
2023/08/21 07:53:59;;;;;;;1.52;1.05;;;18.70;99.90;;;;;;5122532;27;20269;-87
2023/08/21 07:56:30;;;;;;;2.33;1.13;;;18.70;99.90;;;;;;5120030;27;20198;-87
2023/08/21 07:59:01;;;;;;;2.90;1.13;;;18.70;99.90;;;;;;5118595;27;20794;-88
2023/08/21 08:01:34;;;;;;;1.17;0.80;;;18.60;99.90;;;;;;5121270;27;20234;-87
2023/08/21 08:04:05;;;;;;;4.75;0.90;;;18.60;99.90;;;;;;5104930;28;20192;-87
2023/08/21 08:06:37;;;;;;;1.50;1.10;;;18.70;99.90;;;;;;5100463;28;20310;-87
2023/08/21 08:09:08;;;;;;;1.20;1.10;;;18.60;99.90;;;;;;5100524;28;20185;-88
2023/08/21 08:11:39;;;;;;;1.67;1.15;;;18.50;99.90;;;;;;5114998;27;20200;-86
2023/08/21 08:14:10;;;;;;;1.45;0.90;;;18.50;99.90;;;;;;5115024;27;20198;-86
2023/08/21 08:16:44;;;;;;;2.03;1.00;;;18.40;99.90;;;;;;5120978;27;20194;-86
2023/08/21 08:19:15;;;;;;;1.95;1.10;;;18.40;99.90;;;;;;5110246;27;20203;-86
2023/08/21 08:21:45;;;;;;;1.52;0.90;;;18.40;99.90;;;;;;5105197;28;20211;-86
2023/08/21 08:24:16;;;;;;;2.35;1.17;;;18.40;99.90;;;;;;5094183;28;20179;-86
2023/08/21 08:26:47;;;;;;;3.80;1.20;;;18.30;99.90;;;;;;5114510;27;20198;-84
2023/08/21 08:29:18;;;;;;;1.98;1.00;;;18.30;99.90;;;;;;5112524;28;20190;-85
2023/08/21 08:31:51;;;;;;;2.35;1.40;;;18.20;99.90;;;;;;5114700;27;20651;-86
2023/08/21 08:34:22;;;;;;;1.95;1.20;;;18.20;99.90;;;;;;5130361;27;20591;-85
2023/08/21 08:36:53;;;;;;;2.92;1.20;;;18.30;99.90;;;;;;5130449;27;20244;-86
2023/08/21 08:39:23;;;;;;;2.53;1.33;;;18.20;99.90;;;;;;5114201;27;20188;-85
2023/08/21 08:42:01;;;;;;;1.98;1.40;;;18.20;99.90;;;;;;5111455;27;20691;-84
2023/08/21 08:44:32;;;;;;;1.95;1.20;;;18.10;99.90;;;;;;5123749;27;20645;-83
2023/08/21 08:47:19;;;;;;;3.03;1.40;;;18.10;99.90;;;;;;5117043;27;20220;-85
2023/08/21 08:49:58;;;;;;;1.83;1.13;;;18.10;99.90;;;;;;5117342;27;20199;-84
2023/08/21 08:52:32;;;;;;;4.47;1.30;;;18.10;99.90;;;;;;5116001;27;20197;-87
2023/08/21 08:55:08;;;;;;;2.95;1.45;;;18.10;99.90;;;;;;5112790;27;20194;-86
2023/08/21 08:57:40;;;;;;;2.60;1.40;;;18.10;99.90;;;;;;5114819;27;20185;-85
2023/08/21 09:00:12;;;;;;;5.43;1.50;;;18.10;99.90;;;;;;5124495;27;20195;-86
2023/08/21 09:02:45;;;;;;;1.88;1.20;;;18.00;99.90;;;;;;5113912;28;20233;-85
2023/08/21 09:05:16;;;;;;;2.08;1.30;;;18.00;99.90;;;;;;5109317;28;20198;-86
2023/08/21 09:07:47;;;;;;;2.70;1.35;;;18.00;99.90;;;;;;5096704;28;20194;-86
2023/08/21 09:10:19;;;;;;;1.77;1.05;;;18.00;99.90;;;;;;5102341;28;20191;-86
2023/08/21 09:12:50;;;;;;;1.83;1.00;;;17.90;99.90;;;;;;5118140;27;20650;-86
2023/08/21 09:15:22;;;;;;;2.78;1.17;;;17.90;99.90;;;;;;5122101;27;20191;-87
2023/08/21 09:17:59;;;;;;;1.50;1.10;;;17.90;99.90;;;;;;5104580;28;20191;-86
2023/08/21 09:20:38;;;;;;;2.58;1.45;;;17.90;99.90;;;;;;5098176;28;20571;-85
2023/08/21 09:23:09;;;;;;;2.17;1.35;;;17.90;99.90;;;;;;5114762;27;20724;-86
2023/08/21 09:25:43;;;;;;;2.55;1.35;;;17.80;99.90;;;;;;5109463;28;20712;-85
2023/08/21 09:28:14;;;;;;;2.78;1.10;;;17.80;99.90;;;;;;5115019;27;20265;-85
2023/08/21 09:30:53;;;;;;;1.65;1.10;;;17.70;99.90;;;;;;5109844;27;20201;-85
2023/08/21 09:33:28;;;;;;;1.60;1.13;;;17.70;99.90;;;;;;5120387;27;20201;-86
2023/08/21 09:35:59;;;;;;;2.35;1.10;;;17.70;99.90;;;;;;5112756;28;20243;-84
2023/08/21 09:38:30;;;;;;;1.55;1.10;;;17.70;99.90;;;;;;5112908;27;20194;-86
2023/08/21 09:41:01;;;;;;;1.95;1.20;;;17.70;99.90;;;;;;5120456;27;20186;-85
2023/08/21 09:43:33;;;;;;;1.58;1.20;;;17.70;99.90;;;;;;5122004;27;20219;-84
2023/08/21 09:46:04;;;;;;;2.72;1.23;;;17.70;99.90;;;;;;5115509;27;20669;-86
2023/08/21 09:48:38;;;;;;;2.75;1.17;;;17.60;99.90;;;;;;5100607;28;20191;-87
2023/08/21 09:51:10;;;;;;;2.67;1.30;;;17.60;99.90;;;;;;5112277;27;20194;-87
2023/08/21 09:53:41;;;;;;;2.60;1.50;;;17.60;99.90;;;;;;5114958;28;20183;-86
2023/08/21 09:56:16;;;;;;;2.30;1.30;;;17.60;99.90;;;;;;5118704;27;20202;-83
2023/08/21 09:58:49;;;;;;;1.30;1.20;;;17.60;99.90;;;;;;5119278;27;20182;-85
2023/08/21 10:01:23;;;;;;;2.33;1.20;;;17.60;99.90;;;;;;5105467;28;20200;-84
2023/08/21 10:03:59;;;;;;;1.83;1.20;;;17.50;99.90;;;;;;5105622;28;20202;-85
2023/08/21 10:06:32;;;;;;;1.83;1.20;;;17.60;99.90;;;;;;5104941;27;20195;-82
2023/08/21 10:09:03;;;;;;;1.92;1.27;;;17.50;99.90;;;;;;5116636;27;20213;-86
2023/08/21 10:11:35;;;;;;;1.95;1.20;;;17.60;99.90;;;;;;5120603;27;20201;-85
2023/08/21 10:14:06;;;;;;;2.17;1.30;;;17.50;99.90;;;;;;5112796;28;20273;-84
2023/08/21 10:16:38;;;;;;;2.78;1.40;;;17.50;99.90;;;;;;5127537;27;20193;-85
2023/08/21 10:19:16;;;;;;;2.00;1.45;;;17.60;99.90;;;;;;5112327;27;20199;-83
2023/08/21 10:21:51;;;;;;;2.13;1.50;;;17.60;99.90;;;;;;5093086;28;20210;-86
2023/08/21 10:24:37;;;;;;;1.90;1.20;;;17.60;99.90;;;;;;5095843;28;20198;-86
2023/08/21 10:27:11;;;;;;;2.30;1.23;;;17.60;99.90;;;;;;5114813;28;20194;-87
2023/08/21 10:29:43;;;;;;;3.15;1.23;;;17.50;99.90;;;;;;5116028;28;20198;-86
2023/08/21 10:35:36;;;;;;;2.67;1.17;;;17.40;99.90;;;;;;5104483;28;20341;-87
2023/08/21 10:38:27;;;;;;;;;;;;;;;;;;;;;
2023/08/21 10:41:28;;;;;;;1.60;1.15;;;17.50;99.90;;;;;;5121528;27;20245;-90
2023/08/21 10:44:00;;;;;;;3.70;1.30;;;17.60;99.90;;;;;;5121490;28;20216;-88
2023/08/21 10:46:51;;;;;;;1.30;1.13;;;17.60;99.90;;;;;;5129009;28;20195;-88
2023/08/21 10:49:25;;;;;;;2.60;1.35;;;17.60;99.90;;;;;;5132249;28;20193;-88
2023/08/21 10:51:59;;;;;;;1.52;1.17;;;17.60;99.90;;;;;;5131888;28;20199;-86
2023/08/21 10:54:30;;;;;;;2.15;1.25;;;17.60;99.90;;;;;;5122315;28;20194;-88
2023/08/21 10:57:06;;;;;;;1.20;1.00;;;17.60;99.90;;;;;;5114698;28;20190;-89
2023/08/21 10:59:37;;;;;;;1.48;1.00;;;17.60;99.90;;;;;;5116555;28;20200;-89
2023/08/21 11:02:09;;;;;;;2.20;1.10;;;17.50;99.90;;;;;;5095051;28;20211;-88
2023/08/21 11:04:47;;;;;;;1.30;1.13;;;17.60;99.90;;;;;;5093948;28;20191;-87
2023/08/21 11:07:20;;;;;;;1.40;1.10;;;17.50;99.90;;;;;;5092087;28;20198;-88
2023/08/21 11:09:52;;;;;;;1.58;1.10;;;17.60;99.90;;;;;;5091960;28;20202;-88
2023/08/21 11:12:24;;;;;;;2.15;0.90;;;17.50;99.90;;;;;;5105995;28;20663;-85
2023/08/21 11:15:01;;;;;;;2.20;1.00;;;17.60;99.90;;;;;;5096296;28;20194;-86
2023/08/21 11:17:34;;;;;;;2.65;1.20;;;17.50;99.90;;;;;;5130654;28;20201;-88
2023/08/21 11:20:11;;;;;;;1.80;0.90;;;17.50;99.90;;;;;;5117910;28;20199;-87
2023/08/21 11:22:48;;;;;;;1.48;1.02;;;17.50;99.90;;;;;;5107979;28;20217;-87
2023/08/21 11:25:22;;;;;;;1.42;0.85;;;17.50;99.90;;;;;;5121402;28;20223;-87
2023/08/21 11:27:57;;;;;;;1.48;0.75;;;17.50;99.90;;;;;;5102900;28;20269;-84
2023/08/21 11:30:31;;;;;;;2.05;1.10;;;17.50;99.90;;;;;;5095305;28;20191;-86
2023/08/21 11:33:12;;;;;;;1.30;1.00;;;17.50;99.90;;;;;;5124934;28;20183;-86
2023/08/21 11:35:46;;;;;;;2.17;0.93;;;17.50;99.90;;;;;;5118959;28;20198;-85
2023/08/21 11:38:27;;;;;;;1.55;1.05;;;17.50;99.90;;;;;;5118411;28;20205;-86
2023/08/21 11:40:58;;;;;;;1.63;1.00;;;17.50;99.90;;;;;;5102994;28;20564;-87
2023/08/21 11:43:43;;;;;;;1.35;1.15;;;17.40;99.90;;;;;;5108637;27;20610;-89
2023/08/21 11:46:17;;;;;;;1.48;0.98;;;17.40;99.90;;;;;;5133899;27;20201;-88
2023/08/21 11:48:48;;;;;;;3.35;1.10;;;17.40;99.90;;;;;;5120446;28;20197;-88
2023/08/21 11:51:19;;;;;;;1.15;1.05;;;17.40;99.90;;;;;;5114435;27;20222;-89
2023/08/21 11:53:54;;;;;;;1.60;1.15;;;17.30;99.90;;;;;;5115212;27;20185;-86
2023/08/21 11:56:30;;;;;;;2.20;1.30;;;17.30;99.90;;;;;;5155845;27;20276;-86
2023/08/21 11:59:02;;;;;;;1.92;1.40;;;17.30;99.90;;;;;;5124075;27;20186;-87
2023/08/21 12:01:37;;;;;;;2.45;1.30;;;17.20;99.90;;;;;;5122939;28;20203;-87
2023/08/21 12:04:23;;;;;;;2.58;1.33;;;17.20;99.90;;;;;;5090952;27;20226;-88
2023/08/21 12:06:55;;;;;;;2.30;1.40;;;17.20;99.90;;;;;;5139683;27;20201;-88
2023/08/21 12:09:28;;;;;;;2.42;1.35;;;17.20;99.90;;;;;;5121079;27;20202;-91
2023/08/21 12:11:59;;;;;;;2.63;1.52;;;17.20;99.90;;;;;;5139204;27;20262;-90
2023/08/21 12:14:31;;;;;;;3.30;1.55;;;17.10;99.90;;;;;;5136765;27;20201;-89
2023/08/21 12:17:02;;;;;;;2.20;1.48;;;17.10;99.90;;;;;;5116374;27;20194;-87
2023/08/21 12:19:33;;;;;;;2.38;1.48;;;17.10;99.90;;;;;;5095488;28;20199;-88
2023/08/21 12:22:04;;;;;;;2.55;1.65;;;17.00;99.90;;;;;;5110785;28;20206;-88
2023/08/21 12:24:38;;;;;;;2.00;1.58;;;17.00;99.90;;;;;;5124097;27;20714;-88
2023/08/21 12:27:11;;;;;;;3.50;1.92;;;17.00;99.90;;;;;;5108619;28;20203;-89
2023/08/21 12:29:42;;;;;;;1.98;1.42;;;17.00;99.90;;;;;;5102363;28;20649;-88
2023/08/21 12:32:13;;;;;;;3.97;1.50;;;17.00;99.90;;;;;;5115130;28;20183;-87
2023/08/21 12:34:45;;;;;;;1.48;1.27;;;16.90;99.90;;;;;;5116351;27;20202;-86
2023/08/21 12:37:16;;;;;;;2.85;1.45;;;16.90;99.90;;;;;;5132938;27;20653;-88
2023/08/21 12:39:48;;;;;;;3.08;1.48;;;16.90;99.90;;;;;;5127818;27;20198;-89
2023/08/21 12:42:19;;;;;;;2.65;1.20;;;17.00;99.90;;;;;;5123717;27;20179;-87
2023/08/21 12:44:50;;;;;;;4.03;1.52;;;17.00;99.90;;;;;;5108877;27;20221;-87
2023/08/21 12:47:21;;;;;;;1.90;1.42;;;16.90;99.90;;;;;;5121632;27;20197;-87
2023/08/21 12:49:52;;;;;;;2.97;1.60;;;16.90;99.90;;;;;;5088125;28;20192;-87
2023/08/21 12:52:23;;;;;;;2.58;1.25;;;16.90;99.90;;;;;;5116699;27;20579;-88
2023/08/21 12:54:57;;;;;;;2.88;1.50;;;16.80;99.90;;;;;;5112195;27;20540;-89
2023/08/21 12:57:28;;;;;;;2.47;1.50;;;16.90;99.90;;;;;;5108953;27;20219;-89
2023/08/21 13:00:00;;;;;;;1.58;1.40;;;16.90;99.90;;;;;;5094416;28;20201;-87
2023/08/21 13:02:31;;;;;;;2.38;1.52;;;16.80;99.90;;;;;;5126349;28;20206;-87
2023/08/21 13:05:05;;;;;;;3.78;1.45;;;16.80;99.90;;;;;;5109730;28;20201;-87
2023/08/21 13:07:35;;;;;;;2.85;1.40;;;16.80;99.90;;;;;;5115227;27;20661;-88
2023/08/21 13:10:11;;;;;;;2.55;1.55;;;16.80;99.90;;;;;;5127045;27;20186;-87
2023/08/21 13:12:43;;;;;;;2.47;1.65;;;16.80;99.90;;;;;;5129786;27;20197;-88
2023/08/21 13:15:14;;;;;;;2.38;1.60;;;16.80;99.90;;;;;;5120190;27;20661;-89
2023/08/21 13:17:46;;;;;;;2.00;1.55;;;16.80;99.90;;;;;;5112163;27;20186;-90
2023/08/21 13:20:17;;;;;;;2.38;1.80;;;16.80;99.90;;;;;;5097418;28;20187;-84
2023/08/21 13:22:52;;;;;;;2.60;1.40;;;16.70;99.90;;;;;;5151747;27;20222;-85